KTVR

Details ICAO KTVR
Name VICKSBURG TALLULAH RGNL
Region United States
Timezone America/Chicago (UTC-6.0)
Plans Departing 0
Arriving 0
Stats Elevation 86 ft / 26 m (AMSL)
Location 32.351607° -91.027689°
Runways 1
Magnetic Variation 0.408° W
Sunrise 2017-12-15 12:59:37 UTC / 2017-12-15 06:59:37 Local
Sunset 2017-12-15 23:01:56 UTC / 2017-12-15 17:01:56 Local
Advertisement - Login to hide

Runways

ID Width Length Bearing (true) Bearing (mag) Surface Threshold Offset Overrun Length
18 100 ft / 30 m 5,017 ft / 1,529 m 179.14° 179.55° Asphalt 0 ft / 0 m 0 ft / 0 m
36 100 ft / 30 m 5,017 ft / 1,529 m 359.14° 359.55° Asphalt 0 ft / 0 m 0 ft / 0 m

Approach Navaids

Runway Type Ident Frequency Range Bearing (true) Bearing (mag) Slope Elevation
36 Localiser ITVR 109.70 MHz 18 nm / 33 km 359.14° 359.55° - 86 ft / 26 m (AMSL)

Map

Weather


0- 5 10 15 20 25 30 35+ Temperature / ° C

Clouds and Precipitation
Forecast for 2017-12-15 06:00 UTC. Updated 2 hours ago

Ground ~20,000 ft ~40,000 ft Winds

METAR

KTVR 150553Z AUTO 01007KT 10SM CLR 06/01 A3012 RMK AO2 SLP205 T00610011 10094 20056 401391017 53013

TAF

Not found

Frequencies

Recorded 118.52 MHz ASOS
Unicom 123.00 MHz CTAF/UNICOM
Warning: Do not use this data for real-world aviation or navigation. No guarantee of current accuracy is given.